Time;durP1;ratioP1;P1;durP2;ratioP2;P2;SDS_P1;SDS_P2;PMS_P1;PMS_P2;Temp;Humidity;BMP_temperature;BMP_pressure;BME280_temperature;BME280_humidity;BME280_pressure;Samples;Min_cycle;Max_cycle;Signal;HPM_P1;HPM_P2
2022/12/22 03:26:11;;;;;;;12.10;7.82;;;20.30;36.00;;;;;;5066614;28;20058;-72
2022/12/22 03:28:38;;;;;;;16.08;8.60;;;20.30;36.00;;;;;;5068836;28;20048;-72
2022/12/22 03:31:05;;;;;;;15.50;9.80;;;20.30;36.00;;;;;;5067822;28;20052;-72
2022/12/22 03:33:32;;;;;;;11.20;7.45;;;20.30;36.00;;;;;;5068343;28;20389;-71
2022/12/22 03:36:00;;;;;;;13.90;8.32;;;20.30;36.00;;;;;;5067520;28;20160;-72
2022/12/22 03:38:28;;;;;;;15.13;8.65;;;20.30;36.00;;;;;;5068522;28;20461;-72
2022/12/22 03:40:55;;;;;;;14.13;8.20;;;20.30;36.00;;;;;;5062812;28;20047;-72
2022/12/22 03:49:08;;;;;;;15.00;8.32;;;20.30;36.00;;;;;;5067746;28;20534;-72
2022/12/22 03:51:36;;;;;;;14.95;8.70;;;20.20;35.90;;;;;;5066643;28;20047;-72
2022/12/22 03:54:04;;;;;;;14.30;8.35;;;20.20;36.00;;;;;;5068130;28;20072;-71
2022/12/22 03:56:31;;;;;;;14.18;8.73;;;20.20;36.00;;;;;;5067912;28;20048;-71
2022/12/22 03:58:58;;;;;;;14.05;8.77;;;20.30;36.00;;;;;;5067884;28;20079;-72
2022/12/22 04:01:25;;;;;;;13.05;7.78;;;20.20;36.00;;;;;;5067390;28;20041;-72
2022/12/22 04:03:53;;;;;;;13.43;8.55;;;20.20;35.90;;;;;;5067557;28;20090;-72
2022/12/22 04:06:20;;;;;;;11.77;7.72;;;20.20;36.00;;;;;;5067149;28;20048;-72
2022/12/22 04:08:47;;;;;;;13.18;7.60;;;20.30;36.00;;;;;;5067464;28;20049;-72
2022/12/22 04:14:03;;;;;;;15.23;8.43;;;20.30;36.00;;;;;;5064581;28;20135;-72
2022/12/22 04:16:31;;;;;;;13.40;8.25;;;20.20;35.90;;;;;;5049790;28;20135;-71
2022/12/22 04:18:58;;;;;;;14.35;8.05;;;20.30;36.00;;;;;;5049725;28;20056;-72
2022/12/22 04:21:26;;;;;;;14.32;8.13;;;20.30;36.00;;;;;;5067972;28;20080;-72
2022/12/22 04:23:53;;;;;;;13.98;8.75;;;20.30;36.00;;;;;;5067636;28;20356;-71
2022/12/22 04:26:24;;;;;;;14.57;9.02;;;20.30;35.90;;;;;;5066480;28;20044;-72
2022/12/22 04:28:52;;;;;;;12.60;8.13;;;20.30;35.90;;;;;;5067621;28;20251;-72
2022/12/22 04:31:21;;;;;;;14.02;7.60;;;20.30;36.00;;;;;;5067118;28;20044;-72
2022/12/22 04:33:48;;;;;;;13.80;8.48;;;20.20;35.90;;;;;;5067517;28;20477;-72
2022/12/22 04:36:15;;;;;;;13.82;8.68;;;20.20;35.90;;;;;;5065903;28;20060;-72
2022/12/22 04:38:43;;;;;;;12.35;7.70;;;20.20;35.90;;;;;;5066018;28;20075;-71
2022/12/22 04:41:10;;;;;;;14.85;8.75;;;20.20;35.90;;;;;;5057924;28;20439;-71
2022/12/22 04:43:37;;;;;;;13.02;8.18;;;20.20;36.50;;;;;;5063653;28;20438;-72
2022/12/22 04:46:04;;;;;;;12.07;7.85;;;20.20;35.90;;;;;;5062176;28;20045;-71
2022/12/22 04:48:32;;;;;;;13.02;8.10;;;20.20;35.90;;;;;;5066813;28;20396;-71
2022/12/22 04:51:00;;;;;;;12.75;7.97;;;20.20;36.00;;;;;;5066041;28;20126;-72
2022/12/22 04:53:28;;;;;;;13.60;8.32;;;20.20;36.00;;;;;;5084200;28;20048;-72
2022/12/22 04:55:59;;;;;;;12.90;8.57;;;20.20;36.00;;;;;;5087170;28;20058;-71
2022/12/22 04:58:27;;;;;;;13.02;8.00;;;20.20;36.00;;;;;;5087558;28;20416;-72
2022/12/22 05:00:54;;;;;;;14.40;8.73;;;20.20;36.60;;;;;;5087383;28;20127;-72
2022/12/22 05:03:22;;;;;;;12.35;7.93;;;20.20;36.10;;;;;;5086849;28;20536;-72
2022/12/22 05:05:49;;;;;;;11.27;7.82;;;20.20;36.10;;;;;;5087474;28;20067;-71
2022/12/22 05:08:16;;;;;;;13.38;8.07;;;20.20;36.10;;;;;;5068919;28;20456;-73
2022/12/22 05:10:45;;;;;;;12.88;7.40;;;20.20;36.10;;;;;;5087385;28;20492;-72
2022/12/22 05:13:12;;;;;;;12.50;7.50;;;20.20;36.70;;;;;;5074652;28;20106;-72
2022/12/22 05:15:39;;;;;;;13.18;8.27;;;20.20;36.20;;;;;;5049024;28;20058;-71
2022/12/22 05:18:06;;;;;;;14.80;8.95;;;20.20;36.20;;;;;;5069341;28;20059;-71
2022/12/22 05:20:34;;;;;;;13.93;8.75;;;20.20;36.20;;;;;;5069505;28;20063;-72
2022/12/22 05:23:01;;;;;;;12.93;8.20;;;20.20;36.20;;;;;;5070604;28;20067;-72
2022/12/22 05:25:29;;;;;;;14.02;8.60;;;20.20;36.30;;;;;;5070607;28;20041;-72
2022/12/22 05:28:01;;;;;;;12.65;8.25;;;20.20;36.30;;;;;;5070020;28;20045;-71
2022/12/22 05:30:28;;;;;;;14.32;8.20;;;20.20;36.40;;;;;;5070994;28;20048;-72
2022/12/22 05:32:55;;;;;;;13.15;8.50;;;20.20;36.40;;;;;;5065712;28;20048;-72
2022/12/22 05:35:23;;;;;;;14.30;8.00;;;20.20;36.50;;;;;;5070375;28;20084;-72
2022/12/22 05:37:50;;;;;;;15.82;9.50;;;20.20;36.60;;;;;;5052217;28;20051;-72
2022/12/22 05:40:17;;;;;;;16.50;9.57;;;20.20;36.60;;;;;;5069586;28;20041;-72
2022/12/22 05:42:44;;;;;;;17.25;10.45;;;20.20;36.50;;;;;;5070734;28;20063;-72
2022/12/22 05:45:16;;;;;;;16.60;10.38;;;20.20;36.50;;;;;;5069818;28;20583;-72
2022/12/22 05:47:51;;;;;;;16.55;9.65;;;20.20;36.60;;;;;;5070350;28;20173;-71
2022/12/22 05:50:21;;;;;;;15.68;9.85;;;20.20;36.70;;;;;;5049317;28;20044;-71
2022/12/22 05:52:48;;;;;;;18.17;9.70;;;20.20;36.70;;;;;;5052560;28;20584;-72
2022/12/22 05:55:16;;;;;;;17.42;10.30;;;20.20;36.80;;;;;;5070149;28;20439;-72
2022/12/22 05:57:43;;;;;;;16.58;9.88;;;20.20;36.80;;;;;;5052001;28;20143;-71
2022/12/22 06:00:13;;;;;;;15.82;10.10;;;20.20;36.90;;;;;;5052584;28;20051;-71
2022/12/22 06:02:41;;;;;;;15.70;9.88;;;20.30;37.00;;;;;;5069543;28;20098;-72
2022/12/22 06:05:10;;;;;;;18.48;10.68;;;20.30;37.10;;;;;;5070119;28;20525;-71
2022/12/22 06:07:38;;;;;;;20.48;11.25;;;20.30;37.30;;;;;;5069591;28;20123;-69
2022/12/22 06:10:07;;;;;;;17.55;10.48;;;20.30;37.60;;;;;;5066653;28;20155;-70
2022/12/22 06:12:39;;;;;;;19.65;10.82;;;20.40;37.90;;;;;;5052970;28;20048;-67
2022/12/22 06:15:09;;;;;;;18.42;9.85;;;20.40;38.10;;;;;;5069566;28;20518;-71
2022/12/22 06:17:36;;;;;;;21.80;11.23;;;20.40;39.20;;;;;;5064305;28;20045;-72
2022/12/22 06:20:11;;;;;;;20.85;11.82;;;20.40;41.30;;;;;;5051276;28;20782;-70
2022/12/22 06:22:38;;;;;;;18.73;11.35;;;20.50;42.30;;;;;;5067385;28;20179;-72
2022/12/22 06:25:06;;;;;;;17.38;11.18;;;20.50;42.70;;;;;;5061052;28;20134;-71
2022/12/22 06:27:39;;;;;;;20.10;10.90;;;20.50;42.80;;;;;;5087974;28;20055;-71
2022/12/22 06:30:07;;;;;;;20.17;11.50;;;20.60;42.90;;;;;;5088875;28;20131;-72
2022/12/22 06:32:38;;;;;;;19.75;11.73;;;20.60;43.10;;;;;;5077246;28;20465;-72
2022/12/22 06:35:08;;;;;;;22.15;12.35;;;20.60;43.70;;;;;;5057403;28;20071;-72
2022/12/22 06:37:35;;;;;;;23.88;13.45;;;20.60;44.30;;;;;;5086107;28;20045;-72
2022/12/22 06:40:03;;;;;;;22.27;12.45;;;20.70;44.40;;;;;;5065793;28;20051;-72
2022/12/22 06:45:17;;;;;;;20.02;12.43;;;20.70;43.70;;;;;;5080339;28;20048;-71
2022/12/22 06:47:44;;;;;;;22.92;12.90;;;20.70;43.00;;;;;;5071706;28;20657;-72
2022/12/22 06:50:11;;;;;;;21.40;13.40;;;20.70;42.10;;;;;;5065267;28;20140;-72
2022/12/22 06:52:38;;;;;;;24.33;13.15;;;20.70;41.30;;;;;;5062380;28;20139;-72
2022/12/22 06:55:06;;;;;;;24.13;13.18;;;20.70;40.60;;;;;;5087066;28;20534;-72
2022/12/22 06:57:33;;;;;;;20.95;13.65;;;20.80;40.00;;;;;;5088374;28;20491;-71
2022/12/22 07:00:00;;;;;;;20.60;13.23;;;20.80;39.60;;;;;;5084043;28;20040;-72
2022/12/22 07:02:27;;;;;;;22.00;13.75;;;20.80;39.20;;;;;;5086763;28;20457;-73
2022/12/22 07:04:54;;;;;;;24.08;13.38;;;20.80;38.90;;;;;;5086598;28;20463;-72
2022/12/22 07:07:21;;;;;;;25.65;14.27;;;20.80;38.60;;;;;;5072645;28;20284;-72
2022/12/22 07:09:48;;;;;;;24.25;14.27;;;20.80;38.50;;;;;;5067362;28;20049;-72
2022/12/22 07:12:16;;;;;;;22.10;14.40;;;20.90;38.40;;;;;;5068990;28;20123;-72
2022/12/22 07:14:43;;;;;;;25.15;14.95;;;20.90;38.30;;;;;;5054854;28;20044;-73
2022/12/22 07:17:10;;;;;;;25.42;14.07;;;20.90;38.20;;;;;;5050389;28;20407;-72
2022/12/22 07:19:37;;;;;;;24.02;15.35;;;20.90;38.10;;;;;;5075860;28;20041;-72
2022/12/22 07:22:04;;;;;;;22.92;13.23;;;21.00;38.10;;;;;;5061434;28;20049;-72
2022/12/22 07:24:31;;;;;;;22.77;14.30;;;21.00;38.00;;;;;;5065756;28;20102;-72
2022/12/22 07:26:59;;;;;;;23.50;13.93;;;21.00;37.90;;;;;;5075599;28;20086;-72
2022/12/22 07:29:26;;;;;;;25.67;14.60;;;21.00;38.00;;;;;;5067231;28;20052;-71
2022/12/22 07:31:54;;;;;;;23.35;14.85;;;21.10;38.00;;;;;;5080147;28;20058;-72
2022/12/22 07:34:21;;;;;;;24.08;14.02;;;21.10;38.00;;;;;;5062456;28;20075;-71
2022/12/22 07:36:48;;;;;;;23.70;14.57;;;21.10;38.00;;;;;;5068446;28;20044;-72
2022/12/22 07:39:15;;;;;;;25.65;15.15;;;21.20;38.10;;;;;;5076912;28;20058;-72
2022/12/22 07:44:29;;;;;;;22.65;13.63;;;21.20;38.20;;;;;;5063307;28;20071;-72
2022/12/22 07:46:57;;;;;;;27.88;15.02;;;21.20;38.20;;;;;;5078492;28;20517;-72
2022/12/22 07:52:11;;;;;;;24.88;14.85;;;21.30;38.40;;;;;;5067844;28;20131;-72
2022/12/22 07:54:38;;;;;;;25.70;14.82;;;21.30;38.60;;;;;;5070362;28;20127;-72
2022/12/22 07:57:08;;;;;;;24.98;14.88;;;21.30;38.70;;;;;;5083977;28;20124;-71
2022/12/22 07:59:35;;;;;;;28.42;14.98;;;21.30;38.60;;;;;;5067604;28;20151;-72
2022/12/22 08:02:02;;;;;;;23.98;14.93;;;21.30;38.50;;;;;;5070168;28;20193;-73
2022/12/22 08:04:29;;;;;;;27.40;15.73;;;21.30;38.40;;;;;;5079842;28;20048;-72
2022/12/22 08:06:57;;;;;;;25.35;14.60;;;21.30;38.20;;;;;;5055067;28;20515;-72
2022/12/22 08:09:24;;;;;;;24.85;15.07;;;21.40;38.10;;;;;;5065660;28;20051;-72
2022/12/22 08:11:51;;;;;;;26.10;15.55;;;21.40;38.00;;;;;;5066622;28;20469;-73
2022/12/22 08:14:18;;;;;;;25.50;16.27;;;21.40;37.90;;;;;;5067712;28;20068;-72
2022/12/22 08:16:45;;;;;;;24.00;14.23;;;21.40;37.70;;;;;;5067356;28;20127;-72
2022/12/22 08:19:13;;;;;;;26.33;15.27;;;21.40;37.60;;;;;;5066013;28;20575;-72
2022/12/22 08:21:40;;;;;;;25.48;14.55;;;21.40;37.40;;;;;;5069900;28;20113;-73
2022/12/22 08:24:17;;;;;;;24.83;15.73;;;21.40;37.30;;;;;;5087088;28;20131;-73
2022/12/22 08:26:48;;;;;;;27.27;16.23;;;21.50;37.30;;;;;;5059267;28;20500;-72
2022/12/22 08:29:21;;;;;;;26.30;15.35;;;21.50;37.20;;;;;;5048105;28;20135;-73
2022/12/22 08:31:48;;;;;;;24.75;14.60;;;21.50;37.00;;;;;;5066276;28;20124;-72
2022/12/22 08:34:16;;;;;;;23.40;15.27;;;21.50;37.00;;;;;;5066098;28;20127;-72
2022/12/22 08:36:49;;;;;;;24.65;15.40;;;21.50;36.90;;;;;;5072880;28;20399;-73
2022/12/22 08:39:20;;;;;;;27.15;16.15;;;21.50;36.70;;;;;;5088013;28;20127;-72
2022/12/22 08:41:50;;;;;;;25.30;15.00;;;21.50;36.70;;;;;;5068779;28;20044;-72
2022/12/22 08:44:28;;;;;;;24.67;14.48;;;21.50;36.60;;;;;;5087767;28;20828;-72
2022/12/22 08:46:58;;;;;;;23.73;15.32;;;21.50;36.50;;;;;;5067246;28;20428;-72
2022/12/22 08:49:26;;;;;;;26.57;16.67;;;21.60;36.50;;;;;;5068538;28;20094;-73
2022/12/22 08:51:53;;;;;;;23.25;15.27;;;21.50;36.40;;;;;;5072724;28;20387;-73
2022/12/22 08:54:21;;;;;;;25.73;15.10;;;21.60;36.30;;;;;;5091719;28;20163;-73
2022/12/22 08:56:48;;;;;;;26.35;15.70;;;21.60;36.20;;;;;;5090948;28;20040;-72
2022/12/22 08:59:16;;;;;;;27.75;16.63;;;21.60;36.20;;;;;;5066407;28;20411;-73
2022/12/22 09:01:46;;;;;;;23.90;14.93;;;21.60;36.10;;;;;;5070853;28;20115;-73
2022/12/22 09:04:16;;;;;;;24.60;15.43;;;21.60;36.00;;;;;;5078955;28;20048;-72
2022/12/22 09:06:44;;;;;;;29.02;16.10;;;21.70;36.00;;;;;;5075438;28;20576;-72
2022/12/22 09:09:13;;;;;;;26.92;16.75;;;21.70;35.90;;;;;;5070363;28;20419;-72
2022/12/22 09:11:40;;;;;;;25.20;15.68;;;21.80;35.80;;;;;;5052523;28;20098;-72
2022/12/22 09:14:10;;;;;;;26.58;16.42;;;21.80;35.70;;;;;;5070317;28;20044;-72
2022/12/22 09:16:38;;;;;;;27.88;16.13;;;21.90;35.60;;;;;;5066620;28;20052;-72
2022/12/22 09:19:06;;;;;;;24.80;15.43;;;21.90;35.50;;;;;;5070320;28;20101;-72
2022/12/22 09:21:34;;;;;;;26.67;17.00;;;22.00;35.50;;;;;;5070393;28;20045;-72
2022/12/22 09:24:03;;;;;;;29.48;17.48;;;22.00;35.40;;;;;;5070081;28;20308;-72
2022/12/22 09:26:31;;;;;;;25.13;16.25;;;22.00;35.30;;;;;;5069897;28;20122;-72
2022/12/22 09:28:58;;;;;;;25.80;15.95;;;22.00;35.20;;;;;;5069596;28;20055;-73
2022/12/22 09:31:26;;;;;;;28.20;16.95;;;22.10;35.20;;;;;;5052796;28;20044;-72
2022/12/22 09:33:53;;;;;;;29.08;16.25;;;22.10;35.10;;;;;;5072963;28;20082;-73
2022/12/22 09:36:23;;;;;;;25.27;15.65;;;22.10;35.10;;;;;;5091084;28;20047;-73
2022/12/22 09:38:51;;;;;;;27.80;16.95;;;22.10;35.10;;;;;;5085529;28;20059;-73
2022/12/22 09:41:30;;;;;;;26.27;16.30;;;22.10;35.00;;;;;;5067177;28;20043;-73
2022/12/22 09:44:22;;;;;;;23.92;15.23;;;22.10;35.00;;;;;;5076213;28;20496;-72
2022/12/22 09:46:49;;;;;;;27.27;16.92;;;22.10;35.00;;;;;;5051467;28;20045;-73
2022/12/22 09:49:18;;;;;;;26.80;15.98;;;22.20;35.00;;;;;;5070063;28;20320;-74
2022/12/22 09:51:49;;;;;;;26.92;17.55;;;22.20;34.90;;;;;;5069165;28;20040;-74
2022/12/22 09:54:16;;;;;;;26.60;16.73;;;22.20;34.90;;;;;;5069359;28;20040;-74
2022/12/22 09:56:44;;;;;;;25.90;16.20;;;22.30;34.90;;;;;;5069676;28;20564;-72
2022/12/22 09:59:14;;;;;;;26.50;16.55;;;22.30;34.90;;;;;;5068979;28;20314;-72
2022/12/22 10:02:20;;;;;;;26.27;15.50;;;22.30;34.80;;;;;;5070029;28;20051;-72
2022/12/22 10:05:19;;;;;;;26.80;17.42;;;22.40;34.80;;;;;;5085262;28;20110;-72
2022/12/22 10:07:46;;;;;;;27.15;16.55;;;22.40;34.70;;;;;;5063485;28;20040;-72
2022/12/22 10:10:27;;;;;;;27.63;16.70;;;22.40;34.70;;;;;;5067223;28;20447;-72
2022/12/22 10:12:55;;;;;;;;;;;22.30;34.60;;;;;;5065805;28;20044;-72
2022/12/22 10:15:22;;;;;;;29.05;17.83;;;22.40;34.60;;;;;;5050460;28;19942;-72
2022/12/22 10:17:52;;;;;;;25.05;15.65;;;22.40;34.60;;;;;;5072795;28;20036;-72
2022/12/22 10:20:27;;;;;;;26.93;17.17;;;22.40;34.60;;;;;;5075328;28;20044;-73
2022/12/22 10:23:05;;;;;;;25.45;16.23;;;22.40;34.60;;;;;;5082413;28;20292;-72
2022/12/22 10:25:36;;;;;;;27.27;17.17;;;22.40;34.60;;;;;;5069844;28;20492;-72
2022/12/22 10:28:28;;;;;;;;;;;22.40;34.60;;;;;;5079408;28;20108;-72
2022/12/22 10:31:17;;;;;;;25.67;16.15;;;22.40;34.60;;;;;;5073740;28;20291;-72
2022/12/22 10:33:48;;;;;;;25.92;15.93;;;22.40;34.60;;;;;;5068070;28;20048;-72
2022/12/22 10:36:25;;;;;;;27.90;17.50;;;22.40;34.60;;;;;;5077096;28;20151;-72
2022/12/22 10:39:09;;;;;;;26.90;17.42;;;22.40;34.60;;;;;;5088911;28;20075;-72
2022/12/22 10:41:40;;;;;;;27.88;16.90;;;22.40;34.60;;;;;;5086045;28;20071;-72
2022/12/22 10:44:19;;;;;;;25.63;15.95;;;22.40;34.60;;;;;;5070273;28;20506;-72
2022/12/22 10:46:50;;;;;;;26.05;16.40;;;22.50;34.70;;;;;;5058740;28;20558;-72
2022/12/22 10:49:36;;;;;;;24.05;15.85;;;22.50;34.70;;;;;;5077034;28;20176;-72
2022/12/22 10:52:15;;;;;;;25.88;16.50;;;22.50;34.60;;;;;;5067870;28;20492;-72
2022/12/22 10:54:43;;;;;;;27.63;16.98;;;22.50;34.60;;;;;;5063319;28;20052;-72
2022/12/22 10:57:27;;;;;;;25.10;16.60;;;22.50;34.60;;;;;;5063391;28;20044;-72
2022/12/22 11:00:20;;;;;;;27.15;17.55;;;22.50;34.60;;;;;;5067785;28;20151;-72
2022/12/22 11:02:51;;;;;;;27.52;16.35;;;22.50;34.60;;;;;;5062427;28;20486;-72
2022/12/22 11:05:19;;;;;;;29.83;17.63;;;22.60;34.60;;;;;;5066153;28;20102;-72
2022/12/22 11:07:47;;;;;;;28.33;18.20;;;22.50;34.50;;;;;;5068368;28;20084;-72
2022/12/22 11:10:25;;;;;;;27.73;17.48;;;22.60;34.60;;;;;;5068438;28;20225;-73
2022/12/22 11:13:14;;;;;;;26.13;16.05;;;22.60;34.50;;;;;;5069146;28;20140;-72
2022/12/22 11:16:15;;;;;;;29.38;17.45;;;22.60;34.50;;;;;;5068595;28;20128;-72
2022/12/22 11:19:22;;;;;;;29.52;17.67;;;22.60;34.50;;;;;;5065738;28;20055;-72
2022/12/22 11:22:06;;;;;;;26.90;17.48;;;22.60;34.50;;;;;;5075624;28;20411;-72
2022/12/22 11:24:53;;;;;;;30.60;17.92;;;22.60;34.50;;;;;;5088548;28;20105;-72
2022/12/22 11:27:42;;;;;;;25.80;17.05;;;22.70;34.60;;;;;;5085684;28;20461;-72
2022/12/22 11:30:19;;;;;;;29.65;18.17;;;22.70;34.60;;;;;;5067870;28;20059;-72
2022/12/22 11:33:14;;;;;;;29.63;18.48;;;22.70;35.10;;;;;;5067995;28;20055;-72
2022/12/22 11:36:03;;;;;;;26.65;17.35;;;22.70;34.60;;;;;;5068560;28;20048;-72
2022/12/22 11:38:50;;;;;;;28.23;17.63;;;22.70;34.50;;;;;;5036517;28;20049;-72
2022/12/22 11:41:30;;;;;;;30.25;17.25;;;22.70;34.60;;;;;;5065823;28;20062;-72
2022/12/22 11:44:33;;;;;;;30.00;17.92;;;22.70;34.60;;;;;;5075018;28;20052;-72
2022/12/22 11:47:29;;;;;;;28.55;17.83;;;22.70;34.50;;;;;;5067996;28;20076;-72
2022/12/22 11:50:36;;;;;;;30.27;17.52;;;22.70;34.60;;;;;;5077191;28;20052;-72
2022/12/22 11:54:03;;;;;;;27.48;17.25;;;22.80;34.60;;;;;;5062163;28;20049;-72
2022/12/22 11:56:49;;;;;;;27.27;17.60;;;22.70;34.60;;;;;;5066877;28;20048;-72
2022/12/22 11:59:56;;;;;;;26.02;16.33;;;22.70;34.60;;;;;;5069708;28;20053;-71
2022/12/22 12:02:58;;;;;;;24.17;16.33;;;22.70;34.60;;;;;;5085778;28;20051;-73
2022/12/22 12:06:01;;;;;;;26.67;15.93;;;22.70;34.60;;;;;;5084986;28;20052;-72
2022/12/22 12:08:58;;;;;;;30.10;18.08;;;22.70;34.70;;;;;;5066259;28;20083;-72
2022/12/22 12:11:34;;;;;;;30.67;18.70;;;22.70;34.70;;;;;;5061283;28;20049;-73
2022/12/22 12:14:31;;;;;;;27.88;18.08;;;22.70;34.70;;;;;;5067881;28;20465;-72
2022/12/22 12:17:19;;;;;;;28.70;17.92;;;22.70;34.70;;;;;;5049497;28;20127;-72
2022/12/22 12:20:26;;;;;;;28.88;17.40;;;22.70;34.70;;;;;;5057119;28;20419;-72
2022/12/22 12:23:33;;;;;;;26.42;16.20;;;22.70;34.70;;;;;;5057629;28;20072;-72
2022/12/22 12:26:23;;;;;;;26.35;16.58;;;22.70;34.70;;;;;;5064285;28;20044;-72
2022/12/22 12:29:23;;;;;;;27.35;16.15;;;22.70;34.70;;;;;;5066445;28;20436;-72
2022/12/22 12:32:04;;;;;;;30.20;17.53;;;22.80;34.70;;;;;;5067004;28;20048;-72
2022/12/22 12:34:36;;;;;;;26.88;17.63;;;22.80;34.70;;;;;;5077613;28;20316;-72
2022/12/22 12:37:28;;;;;;;28.08;17.13;;;22.80;34.60;;;;;;5067279;28;20127;-72
2022/12/22 12:40:26;;;;;;;26.58;16.52;;;22.90;34.60;;;;;;5070873;28;20135;-72
2022/12/22 12:42:54;;;;;;;27.67;17.48;;;22.90;34.60;;;;;;5072678;28;20046;-72
2022/12/22 12:45:40;;;;;;;24.30;15.90;;;22.90;34.60;;;;;;5084396;28;20132;-72
2022/12/22 12:48:35;;;;;;;26.83;17.58;;;22.90;34.60;;;;;;5087465;28;20606;-72
2022/12/22 12:51:42;;;;;;;24.65;15.93;;;22.90;34.60;;;;;;5048968;28;20048;-71
2022/12/22 12:54:41;;;;;;;24.25;15.98;;;22.90;34.60;;;;;;5070859;28;20048;-72
2022/12/22 12:57:48;;;;;;;26.52;16.13;;;22.90;34.60;;;;;;5035466;28;20045;-72
2022/12/22 13:00:39;;;;;;;25.90;16.05;;;22.90;34.60;;;;;;5067530;28;20044;-71
2022/12/22 13:03:37;;;;;;;24.48;15.73;;;22.90;34.60;;;;;;5060976;28;20047;-72
2022/12/22 13:06:48;;;;;;;27.73;18.05;;;22.90;34.70;;;;;;5066440;28;20080;-72
2022/12/22 13:09:26;;;;;;;23.48;15.32;;;22.90;34.70;;;;;;5073749;28;20673;-71
2022/12/22 13:12:38;;;;;;;23.02;15.15;;;22.90;34.70;;;;;;5069822;28;20114;-71
2022/12/22 13:15:26;;;;;;;25.42;16.35;;;22.90;34.70;;;;;;5061989;28;20198;-71
2022/12/22 13:17:54;;;;;;;24.13;15.27;;;22.90;34.70;;;;;;5055466;28;20527;-72
2022/12/22 13:20:33;;;;;;;26.38;15.32;;;22.90;34.70;;;;;;5067074;28;20052;-72
2022/12/22 13:23:03;;;;;;;26.70;16.23;;;22.90;34.70;;;;;;5060888;28;20079;-72
2022/12/22 13:25:50;;;;;;;22.55;15.35;;;23.00;34.80;;;;;;5062428;28;20087;-72
2022/12/22 13:28:20;;;;;;;21.75;14.55;;;23.00;34.70;;;;;;5060873;28;20056;-72
2022/12/22 13:31:00;;;;;;;23.83;14.95;;;22.90;34.70;;;;;;5062492;28;20068;-72
2022/12/22 13:33:31;;;;;;;21.75;14.40;;;23.00;34.70;;;;;;5079536;28;20045;-72
2022/12/22 13:35:58;;;;;;;22.52;14.45;;;22.90;34.70;;;;;;5072914;28;20485;-72
2022/12/22 13:38:34;;;;;;;25.15;14.90;;;23.00;34.80;;;;;;5061283;28;20375;-72
2022/12/22 13:41:11;;;;;;;22.83;15.23;;;23.00;34.80;;;;;;5068373;28;20131;-72
2022/12/22 13:43:42;;;;;;;25.00;15.40;;;22.90;34.70;;;;;;5068897;28;20131;-72
2022/12/22 13:46:09;;;;;;;23.77;14.73;;;23.00;34.80;;;;;;5072395;28;20037;-72
2022/12/22 13:48:53;;;;;;;22.40;14.77;;;22.90;34.80;;;;;;5076244;28;20045;-72
2022/12/22 13:51:28;;;;;;;23.25;14.68;;;22.90;34.90;;;;;;5066575;28;20055;-72
2022/12/22 13:53:59;;;;;;;20.17;13.50;;;22.90;34.90;;;;;;5071210;28;20471;-72
2022/12/22 13:56:44;;;;;;;24.63;14.82;;;22.90;34.90;;;;;;5053871;28;20377;-72
2022/12/22 13:59:33;;;;;;;24.23;14.90;;;22.90;34.90;;;;;;5068978;28;20051;-71
2022/12/22 14:02:16;;;;;;;24.00;15.60;;;22.90;34.90;;;;;;5068648;28;20051;-72
2022/12/22 14:05:02;;;;;;;23.35;14.68;;;22.90;35.00;;;;;;5075447;28;20052;-72
2022/12/22 14:07:30;;;;;;;23.48;14.65;;;22.80;35.00;;;;;;5048857;28;20072;-72
2022/12/22 14:09:57;;;;;;;24.90;15.77;;;22.80;35.00;;;;;;5068581;28;20048;-72
2022/12/22 14:12:29;;;;;;;27.42;16.45;;;22.80;35.00;;;;;;5068644;28;20037;-71
2022/12/22 14:15:00;;;;;;;25.40;15.77;;;22.80;35.00;;;;;;5067411;28;20076;-72
2022/12/22 14:17:31;;;;;;;30.02;16.70;;;22.80;35.00;;;;;;5050591;28;20047;-72
2022/12/22 14:20:02;;;;;;;26.15;15.88;;;22.80;35.10;;;;;;5068758;28;20100;-72
2022/12/22 14:22:41;;;;;;;26.48;17.23;;;22.70;35.10;;;;;;5089607;28;20131;-72
2022/12/22 14:25:15;;;;;;;25.02;15.93;;;22.80;35.10;;;;;;5089376;28;20036;-72
2022/12/22 14:27:49;;;;;;;28.05;16.10;;;22.70;35.20;;;;;;5078939;28;20551;-72
2022/12/22 14:30:19;;;;;;;27.85;16.70;;;22.70;35.20;;;;;;5068188;28;20055;-72
2022/12/22 14:32:49;;;;;;;24.98;16.25;;;22.70;35.20;;;;;;5051493;28;20477;-74
2022/12/22 14:35:27;;;;;;;24.90;15.35;;;22.70;35.30;;;;;;5071638;28;20102;-72
2022/12/22 14:38:22;;;;;;;27.73;17.15;;;22.70;35.30;;;;;;5068558;28;20048;-72
2022/12/22 14:40:51;;;;;;;29.85;17.88;;;22.60;35.30;;;;;;5073042;28;20040;-72
2022/12/22 14:43:30;;;;;;;29.40;16.75;;;22.60;35.30;;;;;;5052439;28;20131;-72
2022/12/22 14:46:07;;;;;;;30.63;17.15;;;22.60;35.40;;;;;;5068696;28;20139;-72
2022/12/22 14:48:44;;;;;;;30.42;17.73;;;22.60;35.40;;;;;;5075911;28;20368;-73
2022/12/22 14:51:18;;;;;;;25.05;16.20;;;22.60;35.40;;;;;;5078264;28;20396;-72
2022/12/22 14:53:51;;;;;;;25.85;17.10;;;22.60;35.40;;;;;;5083726;28;20541;-72
2022/12/22 14:56:19;;;;;;;27.27;16.38;;;22.60;35.40;;;;;;5069795;28;20326;-73
2022/12/22 14:58:48;;;;;;;24.35;17.08;;;22.60;35.50;;;;;;5084608;28;20052;-72
2022/12/22 15:01:27;;;;;;;26.50;17.13;;;22.50;35.50;;;;;;5088763;28;20101;-73
2022/12/22 15:04:04;;;;;;;26.85;17.17;;;22.50;35.50;;;;;;5089543;28;20430;-73
2022/12/22 15:06:35;;;;;;;27.60;16.60;;;22.50;35.50;;;;;;5087879;28;20476;-72
2022/12/22 15:09:23;;;;;;;24.75;16.33;;;22.50;35.60;;;;;;5071777;28;20260;-73
2022/12/22 15:12:14;;;;;;;25.98;17.45;;;22.50;35.50;;;;;;5088350;28;20495;-73
2022/12/22 15:14:41;;;;;;;26.48;16.25;;;22.50;35.50;;;;;;5088987;28;20082;-72
2022/12/22 15:17:19;;;;;;;27.35;16.02;;;22.50;35.50;;;;;;5088105;28;20538;-72
2022/12/22 15:19:47;;;;;;;25.42;16.10;;;22.50;35.60;;;;;;5070742;28;20051;-72
2022/12/22 15:22:14;;;;;;;25.52;15.93;;;22.50;35.70;;;;;;5088514;28;20040;-72
2022/12/22 15:24:41;;;;;;;22.13;14.77;;;22.40;35.60;;;;;;5088864;28;20090;-73
2022/12/22 15:27:08;;;;;;;26.95;16.95;;;22.40;36.20;;;;;;5083792;28;20054;-72
2022/12/22 15:29:36;;;;;;;24.58;14.68;;;22.40;35.80;;;;;;5070357;28;20052;-72
2022/12/22 15:32:03;;;;;;;22.65;14.52;;;22.30;35.80;;;;;;5083097;28;20497;-73
2022/12/22 15:34:31;;;;;;;25.92;16.13;;;22.30;35.90;;;;;;5068451;28;20098;-72
2022/12/22 15:36:58;;;;;;;24.80;15.40;;;22.20;36.50;;;;;;5067792;28;20519;-72
2022/12/22 15:39:25;;;;;;;24.33;15.40;;;22.20;36.00;;;;;;5068458;28;20477;-72
2022/12/22 15:41:53;;;;;;;22.77;14.07;;;22.20;36.10;;;;;;5067728;28;20165;-72
2022/12/22 15:44:21;;;;;;;22.88;14.68;;;22.10;36.10;;;;;;5067927;28;20064;-73
2022/12/22 15:46:54;;;;;;;23.77;15.65;;;22.10;36.20;;;;;;5067774;28;20118;-73
2022/12/22 15:49:24;;;;;;;22.67;15.15;;;22.10;36.30;;;;;;5067980;28;20417;-73
2022/12/22 15:51:56;;;;;;;21.67;14.93;;;22.00;36.30;;;;;;5067900;28;20040;-73
2022/12/22 15:54:26;;;;;;;23.17;14.68;;;22.00;36.40;;;;;;5067820;28;20048;-73
2022/12/22 15:56:54;;;;;;;21.60;13.77;;;22.00;36.50;;;;;;5050518;28;20361;-72
2022/12/22 15:59:25;;;;;;;22.17;15.02;;;21.90;36.50;;;;;;5067130;28;20492;-73
2022/12/22 16:01:56;;;;;;;23.45;15.63;;;21.90;36.50;;;;;;5067029;28;20489;-72
2022/12/22 16:04:28;;;;;;;24.38;15.15;;;21.90;36.60;;;;;;5067345;28;20082;-72
2022/12/22 16:06:55;;;;;;;23.13;15.25;;;21.90;36.70;;;;;;5063182;28;20045;-72
2022/12/22 16:09:26;;;;;;;22.73;14.45;;;21.80;36.60;;;;;;5050037;28;20071;-73
2022/12/22 16:11:53;;;;;;;23.02;15.13;;;21.80;37.40;;;;;;5067752;28;20215;-72
2022/12/22 16:14:22;;;;;;;22.23;14.05;;;21.80;36.80;;;;;;5067511;28;20052;-73
2022/12/22 16:16:49;;;;;;;21.30;13.95;;;21.70;36.80;;;;;;5068080;28;20208;-72
2022/12/22 16:19:17;;;;;;;23.40;14.90;;;21.70;36.80;;;;;;5068249;28;20501;-72
2022/12/22 16:21:47;;;;;;;24.42;15.35;;;21.70;36.90;;;;;;5067612;28;20124;-73
2022/12/22 16:24:29;;;;;;;20.00;14.02;;;21.70;36.90;;;;;;5067459;28;20524;-73
2022/12/22 16:26:57;;;;;;;21.83;13.68;;;21.70;37.00;;;;;;5068127;28;20144;-72
2022/12/22 16:29:25;;;;;;;20.77;14.02;;;21.60;36.90;;;;;;5067256;28;20048;-72
2022/12/22 16:32:14;;;;;;;22.80;14.68;;;21.60;37.00;;;;;;5049971;28;20128;-72
2022/12/22 16:34:43;;;;;;;23.05;15.07;;;21.60;37.00;;;;;;5067691;28;20050;-72
2022/12/22 16:37:11;;;;;;;24.60;14.85;;;21.60;37.10;;;;;;5067326;28;20080;-73
2022/12/22 16:39:38;;;;;;;23.23;14.20;;;21.60;37.10;;;;;;5062804;28;20238;-73
2022/12/22 16:42:11;;;;;;;21.95;14.25;;;21.50;37.10;;;;;;5065859;28;20381;-72
2022/12/22 16:44:53;;;;;;;19.98;13.75;;;21.50;37.20;;;;;;5066045;28;20056;-72
2022/12/22 16:47:30;;;;;;;20.88;13.90;;;21.50;37.20;;;;;;5068137;28;20048;-72